Time;durP1;ratioP1;P1;durP2;ratioP2;P2;SDS_P1;SDS_P2;PMS_P1;PMS_P2;Temp;Humidity;BMP_temperature;BMP_pressure;BME280_temperature;BME280_humidity;BME280_pressure;Samples;Min_cycle;Max_cycle;Signal;HPM_P1;HPM_P2
2022/04/10 00:00:49;;;;;;;0.20;0.20;;;2.80;82.70;;;;;;5095072;28;20071;-71
2022/04/10 00:03:15;;;;;;;0.40;0.22;;;2.80;82.70;;;;;;5094385;28;20146;-72
2022/04/10 00:05:40;;;;;;;0.65;0.20;;;2.70;82.80;;;;;;5113054;28;20043;-71
2022/04/10 00:08:06;;;;;;;0.20;0.20;;;2.80;82.80;;;;;;5112948;28;20104;-71
2022/04/10 00:10:32;;;;;;;0.38;0.30;;;2.70;82.70;;;;;;5112812;28;20040;-72
2022/04/10 00:12:58;;;;;;;0.20;0.10;;;2.70;82.80;;;;;;5113036;28;20081;-71
2022/04/10 00:15:24;;;;;;;0.20;0.20;;;2.70;82.80;;;;;;5113077;28;20039;-71
2022/04/10 00:17:49;;;;;;;0.28;0.20;;;2.70;82.90;;;;;;5113040;28;20041;-71
2022/04/10 00:20:15;;;;;;;0.50;0.35;;;2.70;82.90;;;;;;5112764;28;20039;-71
2022/04/10 00:22:43;;;;;;;0.30;0.20;;;2.60;82.90;;;;;;5112947;28;20172;-71
2022/04/10 00:25:12;;;;;;;0.93;0.20;;;2.60;83.00;;;;;;5112610;28;20504;-71
2022/04/10 00:27:38;;;;;;;0.98;0.30;;;2.60;83.00;;;;;;5112951;28;20177;-71
2022/04/10 00:30:04;;;;;;;0.40;0.30;;;2.70;83.10;;;;;;5113053;28;20051;-71
2022/04/10 00:32:30;;;;;;;0.55;0.30;;;2.70;83.10;;;;;;5112808;28;20035;-71
2022/04/10 00:34:56;;;;;;;0.52;0.20;;;2.60;83.10;;;;;;5094310;28;20047;-71
2022/04/10 00:37:22;;;;;;;0.55;0.30;;;2.60;83.10;;;;;;5112555;28;20561;-73
2022/04/10 00:39:47;;;;;;;0.20;0.20;;;2.60;83.10;;;;;;5112915;28;20093;-72
2022/04/10 00:42:13;;;;;;;0.50;0.20;;;2.60;83.00;;;;;;5112469;28;20052;-72
2022/04/10 00:44:39;;;;;;;0.22;0.20;;;2.50;83.00;;;;;;5094344;28;20036;-72
2022/04/10 00:47:05;;;;;;;0.30;0.20;;;2.50;83.10;;;;;;5093559;28;20036;-72
2022/04/10 00:49:32;;;;;;;0.10;0.10;;;2.50;83.10;;;;;;5094186;28;20036;-71
2022/04/10 00:51:59;;;;;;;0.20;0.20;;;2.50;83.20;;;;;;5112362;28;20031;-72
2022/04/10 00:54:26;;;;;;;0.45;0.28;;;2.40;83.20;;;;;;5112594;28;20032;-71
2022/04/10 00:56:54;;;;;;;0.25;0.17;;;2.40;83.30;;;;;;5112842;28;20043;-71
2022/04/10 00:59:20;;;;;;;0.88;0.20;;;2.40;83.30;;;;;;5093774;28;20063;-71
2022/04/10 01:01:47;;;;;;;0.30;0.20;;;2.50;83.40;;;;;;5112177;28;20073;-71
2022/04/10 01:04:14;;;;;;;1.10;0.30;;;2.40;83.40;;;;;;5112918;28;20035;-71
2022/04/10 01:06:41;;;;;;;0.30;0.22;;;2.40;83.50;;;;;;5112692;28;20048;-71
2022/04/10 01:09:07;;;;;;;1.17;0.30;;;2.30;83.30;;;;;;5093936;28;20043;-71
2022/04/10 01:11:33;;;;;;;0.10;0.10;;;2.30;83.40;;;;;;5115812;28;20035;-71
2022/04/10 01:14:00;;;;;;;0.20;0.20;;;2.30;83.30;;;;;;5080737;28;20035;-71
2022/04/10 01:16:27;;;;;;;0.20;0.20;;;2.30;83.40;;;;;;5116456;28;20040;-72
2022/04/10 01:18:54;;;;;;;0.20;0.20;;;2.30;83.40;;;;;;5116045;28;20444;-72
2022/04/10 01:21:25;;;;;;;0.20;0.20;;;2.30;83.40;;;;;;5115741;28;20085;-71
2022/04/10 01:23:53;;;;;;;0.10;0.10;;;2.40;83.40;;;;;;5115806;28;20047;-71
2022/04/10 01:26:19;;;;;;;0.45;0.30;;;2.20;83.30;;;;;;5097743;28;20039;-71
2022/04/10 01:29:06;;;;;;;0.47;0.20;;;2.20;83.30;;;;;;5116171;28;20035;-71
2022/04/10 01:31:34;;;;;;;1.00;0.20;;;2.20;83.50;;;;;;5097489;28;20043;-71
2022/04/10 01:34:03;;;;;;;0.68;0.20;;;2.20;83.50;;;;;;5115549;28;20039;-72
2022/04/10 01:36:30;;;;;;;0.25;0.10;;;2.20;83.50;;;;;;5097357;28;20550;-72
2022/04/10 01:38:58;;;;;;;0.35;0.20;;;2.20;83.50;;;;;;5115296;28;20047;-72
2022/04/10 01:41:26;;;;;;;0.17;0.17;;;2.20;83.40;;;;;;5115454;28;20035;-72
2022/04/10 01:43:53;;;;;;;0.25;0.20;;;2.20;83.50;;;;;;5115851;28;20043;-71
2022/04/10 01:46:19;;;;;;;0.32;0.20;;;2.20;83.50;;;;;;5115566;28;20044;-71
2022/04/10 01:48:45;;;;;;;0.08;0.08;;;2.20;83.60;;;;;;5115458;28;20119;-71
2022/04/10 01:51:11;;;;;;;1.92;0.20;;;2.10;83.60;;;;;;5115368;28;20519;-71
2022/04/10 01:53:38;;;;;;;0.80;0.30;;;2.10;83.70;;;;;;5115371;28;20062;-72
2022/04/10 01:56:06;;;;;;;0.45;0.20;;;2.10;83.70;;;;;;5115095;28;20047;-71
2022/04/10 01:58:42;;;;;;;0.20;0.20;;;2.10;83.70;;;;;;5115042;28;20051;-71
2022/04/10 02:01:10;;;;;;;0.88;0.20;;;2.00;83.70;;;;;;5095785;28;20055;-71
2022/04/10 02:03:37;;;;;;;1.08;0.40;;;2.00;83.70;;;;;;5114948;28;20043;-71
2022/04/10 02:06:05;;;;;;;0.38;0.30;;;2.00;83.70;;;;;;5115081;28;20048;-71
2022/04/10 02:08:32;;;;;;;0.55;0.30;;;2.00;83.70;;;;;;5114836;28;20391;-71
2022/04/10 02:10:58;;;;;;;0.35;0.30;;;2.00;83.70;;;;;;5115116;28;20031;-71
2022/04/10 02:13:24;;;;;;;0.47;0.28;;;1.90;83.70;;;;;;5114632;28;20032;-71
2022/04/10 02:15:50;;;;;;;0.60;0.22;;;2.00;83.80;;;;;;5115354;28;20043;-71
2022/04/10 02:18:16;;;;;;;0.30;0.30;;;2.00;83.80;;;;;;5096170;28;20051;-72
2022/04/10 02:20:42;;;;;;;0.30;0.20;;;2.00;83.80;;;;;;5114299;28;20039;-72
2022/04/10 02:23:09;;;;;;;0.77;0.25;;;2.00;83.80;;;;;;5097199;28;20526;-71
2022/04/10 02:25:35;;;;;;;0.17;0.17;;;1.90;83.80;;;;;;5096802;28;20134;-71
2022/04/10 02:28:01;;;;;;;0.17;0.17;;;1.90;83.80;;;;;;5079978;28;20123;-72
2022/04/10 02:30:26;;;;;;;0.22;0.20;;;1.90;83.90;;;;;;5114608;28;20036;-72
2022/04/10 02:32:52;;;;;;;0.20;0.20;;;1.80;83.80;;;;;;5114423;28;20088;-71
2022/04/10 02:35:18;;;;;;;0.28;0.22;;;1.90;84.00;;;;;;5114447;28;20031;-71
2022/04/10 02:37:46;;;;;;;0.20;0.20;;;1.90;84.00;;;;;;5114288;28;20059;-71
2022/04/10 02:40:14;;;;;;;0.65;0.20;;;1.80;84.00;;;;;;5114297;28;20373;-72
2022/04/10 02:42:40;;;;;;;0.20;0.20;;;1.80;84.00;;;;;;5096140;28;20568;-71
2022/04/10 02:45:07;;;;;;;0.30;0.30;;;1.80;84.00;;;;;;5114311;28;20400;-72
2022/04/10 02:47:33;;;;;;;0.50;0.30;;;1.80;84.00;;;;;;5114057;28;20050;-71
2022/04/10 02:49:59;;;;;;;0.68;0.28;;;1.90;84.10;;;;;;5114228;28;20438;-71
2022/04/10 02:52:25;;;;;;;0.75;0.20;;;1.80;84.00;;;;;;5114548;28;20043;-71
2022/04/10 02:54:51;;;;;;;0.28;0.17;;;1.70;83.90;;;;;;5096554;28;20032;-71
2022/04/10 02:57:17;;;;;;;0.57;0.20;;;1.90;84.10;;;;;;5113855;28;20031;-71
2022/04/10 02:59:43;;;;;;;0.38;0.17;;;1.80;84.00;;;;;;5114254;28;20055;-71
2022/04/10 03:02:09;;;;;;;0.63;0.22;;;1.80;84.00;;;;;;5114616;28;20047;-72
2022/04/10 03:04:35;;;;;;;0.43;0.20;;;1.80;84.00;;;;;;5113985;28;20056;-72
2022/04/10 03:07:01;;;;;;;0.70;0.38;;;1.80;84.10;;;;;;5114530;28;20108;-71
2022/04/10 03:09:27;;;;;;;0.45;0.22;;;1.70;84.10;;;;;;5114240;28;20044;-71
2022/04/10 03:11:52;;;;;;;0.38;0.30;;;1.70;84.10;;;;;;5114333;28;20461;-72
2022/04/10 03:14:18;;;;;;;0.50;0.30;;;1.70;84.20;;;;;;5113977;28;20378;-71
2022/04/10 03:16:44;;;;;;;0.45;0.30;;;1.60;84.20;;;;;;5096240;28;20036;-71
2022/04/10 03:19:10;;;;;;;0.20;0.20;;;1.60;84.30;;;;;;5095558;28;20539;-71
2022/04/10 03:21:36;;;;;;;0.75;0.40;;;1.60;84.30;;;;;;5095583;28;20142;-71
2022/04/10 03:24:02;;;;;;;0.32;0.30;;;1.60;84.30;;;;;;5113756;28;20032;-71
2022/04/10 03:26:29;;;;;;;0.40;0.30;;;1.60;84.30;;;;;;5079419;28;20129;-71
2022/04/10 03:28:55;;;;;;;0.52;0.22;;;1.60;84.30;;;;;;5095527;28;20059;-71
2022/04/10 03:31:22;;;;;;;0.82;0.50;;;1.60;84.30;;;;;;5113737;28;20484;-71
2022/04/10 03:33:49;;;;;;;1.15;0.40;;;1.60;84.30;;;;;;5113349;28;20164;-71
2022/04/10 03:36:15;;;;;;;0.90;0.50;;;1.50;84.30;;;;;;5095574;28;20063;-71
2022/04/10 03:38:41;;;;;;;0.60;0.45;;;1.60;84.40;;;;;;5113985;28;20044;-71
2022/04/10 03:41:07;;;;;;;0.25;0.20;;;1.60;84.30;;;;;;5096011;28;20046;-71
2022/04/10 03:43:33;;;;;;;0.80;0.50;;;1.50;84.30;;;;;;5079049;28;20427;-71
2022/04/10 03:45:59;;;;;;;0.35;0.20;;;1.60;84.40;;;;;;5113346;28;20043;-72
2022/04/10 03:48:26;;;;;;;0.43;0.40;;;1.60;84.40;;;;;;5113204;28;20080;-71
2022/04/10 03:50:52;;;;;;;0.40;0.30;;;1.50;84.30;;;;;;5113365;28;20048;-71
2022/04/10 03:53:18;;;;;;;0.43;0.28;;;1.50;84.40;;;;;;5113304;28;20042;-71
2022/04/10 03:55:43;;;;;;;0.68;0.38;;;1.50;84.40;;;;;;5113477;28;20039;-71
2022/04/10 03:58:09;;;;;;;0.43;0.30;;;1.50;84.50;;;;;;5113432;28;20401;-71
2022/04/10 04:00:35;;;;;;;0.50;0.30;;;1.40;84.50;;;;;;5113409;28;20548;-71
2022/04/10 04:03:01;;;;;;;0.50;0.20;;;1.50;84.60;;;;;;5113199;28;20131;-71
2022/04/10 04:05:27;;;;;;;0.30;0.30;;;1.40;84.60;;;;;;5113019;28;20066;-71
2022/04/10 04:07:53;;;;;;;0.40;0.30;;;1.40;84.60;;;;;;5113596;28;20093;-71
2022/04/10 04:10:19;;;;;;;0.10;0.10;;;1.40;84.60;;;;;;5113419;28;20137;-71
2022/04/10 04:12:44;;;;;;;0.40;0.10;;;1.40;84.70;;;;;;5113174;28;20036;-71
2022/04/10 04:15:11;;;;;;;0.80;0.20;;;1.30;84.80;;;;;;5112953;28;20039;-71
2022/04/10 04:17:37;;;;;;;0.17;0.17;;;1.30;84.80;;;;;;5113172;28;20059;-71
2022/04/10 04:20:05;;;;;;;0.10;0.10;;;1.30;84.80;;;;;;5094898;28;20124;-71
2022/04/10 04:22:31;;;;;;;0.10;0.10;;;1.30;84.90;;;;;;5078077;28;20039;-71
2022/04/10 04:24:56;;;;;;;0.43;0.30;;;1.30;84.90;;;;;;5112867;28;20039;-72
2022/04/10 04:27:22;;;;;;;0.90;0.20;;;1.30;85.00;;;;;;5093399;28;20036;-72
2022/04/10 04:29:48;;;;;;;0.20;0.20;;;1.30;85.10;;;;;;5112993;28;20085;-72
2022/04/10 04:32:14;;;;;;;0.10;0.10;;;1.30;85.00;;;;;;5094137;28;20105;-72
2022/04/10 04:34:39;;;;;;;0.20;0.20;;;1.30;84.90;;;;;;5094598;28;20035;-72
2022/04/10 04:37:05;;;;;;;2.13;0.22;;;1.30;84.90;;;;;;5113411;28;20038;-72
2022/04/10 04:39:31;;;;;;;0.32;0.30;;;1.30;84.80;;;;;;5112684;28;20050;-72
2022/04/10 04:41:56;;;;;;;0.65;0.30;;;1.30;84.80;;;;;;5113249;28;20118;-72
2022/04/10 04:44:23;;;;;;;0.50;0.40;;;1.30;84.80;;;;;;5113194;28;20112;-72
2022/04/10 04:46:49;;;;;;;0.40;0.30;;;1.40;84.80;;;;;;5113158;28;20035;-71
2022/04/10 04:49:14;;;;;;;0.10;0.10;;;1.30;84.80;;;;;;5113302;28;20635;-72
2022/04/10 04:51:40;;;;;;;0.40;0.20;;;1.30;84.80;;;;;;5112611;28;20035;-71
2022/04/10 04:54:09;;;;;;;0.63;0.30;;;1.30;84.90;;;;;;5112779;28;20039;-71
2022/04/10 04:56:35;;;;;;;0.20;0.20;;;1.30;84.90;;;;;;5112741;28;20067;-71
2022/04/10 04:59:01;;;;;;;0.10;0.10;;;1.20;84.90;;;;;;5077896;28;20527;-71
2022/04/10 05:01:26;;;;;;;0.20;0.20;;;1.30;84.90;;;;;;5112779;28;20058;-71
2022/04/10 05:03:52;;;;;;;0.10;0.10;;;1.30;84.90;;;;;;5112400;28;20051;-71
2022/04/10 05:06:18;;;;;;;0.65;0.20;;;1.20;84.90;;;;;;5094327;28;20035;-72
2022/04/10 05:08:46;;;;;;;0.17;0.17;;;1.30;85.00;;;;;;5112362;28;20034;-72
2022/04/10 05:11:13;;;;;;;0.10;0.10;;;1.20;85.00;;;;;;5112420;28;20035;-72
2022/04/10 05:13:39;;;;;;;0.20;0.20;;;1.20;85.00;;;;;;5094561;28;20092;-72
2022/04/10 05:16:06;;;;;;;0.10;0.10;;;1.20;85.00;;;;;;5113009;28;20040;-72
2022/04/10 05:18:31;;;;;;;0.10;0.10;;;1.20;85.00;;;;;;5077456;28;20047;-71
2022/04/10 05:20:57;;;;;;;0.73;0.30;;;1.20;85.00;;;;;;5112251;28;20164;-71
2022/04/10 05:23:23;;;;;;;0.38;0.38;;;1.20;85.00;;;;;;5077187;28;20480;-73
2022/04/10 05:25:50;;;;;;;0.20;0.20;;;1.20;85.00;;;;;;5077056;28;20055;-72
2022/04/10 05:28:16;;;;;;;0.10;0.10;;;1.20;85.00;;;;;;5112636;28;20035;-72
2022/04/10 05:30:42;;;;;;;0.20;0.20;;;1.20;85.00;;;;;;5094132;28;20117;-72
2022/04/10 05:33:09;;;;;;;0.20;0.20;;;1.20;85.00;;;;;;5112270;28;20031;-73
2022/04/10 05:35:35;;;;;;;0.30;0.20;;;1.20;84.90;;;;;;5112190;28;20104;-72
2022/04/10 05:38:01;;;;;;;0.13;0.13;;;1.30;85.00;;;;;;5111712;28;20069;-72
2022/04/10 05:40:27;;;;;;;0.22;0.22;;;1.30;85.00;;;;;;5112099;28;20430;-72
2022/04/10 05:42:52;;;;;;;1.05;0.30;;;1.30;85.00;;;;;;5112213;28;20036;-72
2022/04/10 05:45:18;;;;;;;0.75;0.32;;;1.30;85.00;;;;;;5112529;28;20040;-72
2022/04/10 05:47:44;;;;;;;0.38;0.20;;;1.40;85.00;;;;;;5093851;28;20036;-72
2022/04/10 05:50:11;;;;;;;0.30;0.30;;;1.40;84.80;;;;;;5112299;28;20075;-72
2022/04/10 05:52:41;;;;;;;0.10;0.10;;;1.50;84.70;;;;;;5093988;28;20054;-72
2022/04/10 05:55:08;;;;;;;0.77;0.22;;;1.60;84.70;;;;;;5093827;28;20463;-72
2022/04/10 05:57:35;;;;;;;0.55;0.40;;;1.60;84.50;;;;;;5115332;28;20039;-72
2022/04/10 06:00:02;;;;;;;1.23;0.50;;;1.60;84.50;;;;;;5115670;28;20044;-72
2022/04/10 06:02:28;;;;;;;0.68;0.30;;;1.70;84.40;;;;;;5115429;28;20112;-72
2022/04/10 06:04:55;;;;;;;0.20;0.20;;;1.80;84.30;;;;;;5097186;28;20107;-72
2022/04/10 06:07:21;;;;;;;1.23;0.40;;;1.80;84.20;;;;;;5097435;28;20050;-72
2022/04/10 06:09:47;;;;;;;2.05;0.20;;;1.90;84.10;;;;;;5097090;28;20031;-72
2022/04/10 06:12:13;;;;;;;0.57;0.35;;;2.00;84.00;;;;;;5115691;28;20044;-73
2022/04/10 06:14:38;;;;;;;0.70;0.30;;;2.10;83.90;;;;;;5115702;28;20035;-73
2022/04/10 06:17:04;;;;;;;0.57;0.30;;;2.20;83.80;;;;;;5115435;28;20515;-73
2022/04/10 06:19:30;;;;;;;0.65;0.50;;;2.30;83.70;;;;;;5115567;28;20543;-73
2022/04/10 06:21:56;;;;;;;0.30;0.30;;;2.40;83.60;;;;;;5115219;28;20035;-73
2022/04/10 06:24:22;;;;;;;0.32;0.25;;;2.40;83.50;;;;;;5115479;28;20035;-73
2022/04/10 06:26:49;;;;;;;0.52;0.40;;;2.50;83.30;;;;;;5115236;28;20039;-72
2022/04/10 06:29:16;;;;;;;0.20;0.20;;;2.50;83.20;;;;;;5096514;28;20035;-73
2022/04/10 06:31:42;;;;;;;0.70;0.50;;;2.60;83.20;;;;;;5115375;28;20048;-73
2022/04/10 06:34:07;;;;;;;0.57;0.40;;;2.70;83.20;;;;;;5114714;28;20031;-73
2022/04/10 06:36:33;;;;;;;1.08;0.55;;;2.80;83.10;;;;;;5115434;28;20039;-73
2022/04/10 06:38:59;;;;;;;0.85;0.52;;;2.90;83.10;;;;;;5114991;28;20510;-72
2022/04/10 06:41:25;;;;;;;1.02;0.60;;;3.00;82.90;;;;;;5114697;28;20132;-73
2022/04/10 06:43:50;;;;;;;1.30;0.70;;;3.10;82.80;;;;;;5096601;28;20132;-70
2022/04/10 06:46:16;;;;;;;0.90;0.50;;;3.20;82.70;;;;;;5114833;28;20036;-71
2022/04/10 06:48:42;;;;;;;1.00;0.60;;;3.60;82.70;;;;;;5097121;28;20040;-70
2022/04/10 06:51:08;;;;;;;1.17;0.60;;;3.50;82.40;;;;;;5095046;28;20139;-70
2022/04/10 06:53:33;;;;;;;1.33;0.63;;;3.70;82.30;;;;;;5114592;28;20062;-70
2022/04/10 06:55:59;;;;;;;1.70;0.90;;;3.90;82.00;;;;;;5114473;28;20043;-70
2022/04/10 06:58:25;;;;;;;0.63;0.60;;;4.20;81.70;;;;;;5114552;28;20396;-70
2022/04/10 07:00:51;;;;;;;1.73;0.70;;;4.20;81.30;;;;;;5114311;28;20392;-70
2022/04/10 07:03:17;;;;;;;2.20;0.98;;;4.30;81.10;;;;;;5114309;28;20051;-71
2022/04/10 07:05:44;;;;;;;1.83;0.77;;;4.40;81.10;;;;;;5114139;28;20043;-71
2022/04/10 07:08:10;;;;;;;1.42;0.60;;;4.60;81.20;;;;;;5113053;28;20115;-70
2022/04/10 07:10:37;;;;;;;1.60;0.70;;;4.60;81.10;;;;;;5114075;28;20031;-70
2022/04/10 07:13:03;;;;;;;2.05;0.77;;;4.70;81.10;;;;;;5095750;28;20084;-71
2022/04/10 07:15:30;;;;;;;1.30;0.40;;;4.70;81.20;;;;;;5114083;28;20067;-70
2022/04/10 07:17:56;;;;;;;1.05;0.50;;;4.80;81.20;;;;;;5114515;28;20036;-71
2022/04/10 07:20:24;;;;;;;1.20;0.50;;;4.90;81.20;;;;;;5114085;28;20146;-70
2022/04/10 07:25:28;;;;;;;0.50;0.40;;;5.10;80.90;;;;;;5113753;28;20388;-70
2022/04/10 07:27:54;;;;;;;0.68;0.50;;;5.10;80.90;;;;;;5113790;28;20036;-70
2022/04/10 07:30:20;;;;;;;0.55;0.40;;;5.00;81.00;;;;;;5096215;28;20038;-70
2022/04/10 07:32:54;;;;;;;0.47;0.40;;;5.00;81.20;;;;;;5113752;28;20036;-70
2022/04/10 07:35:21;;;;;;;0.38;0.30;;;4.90;81.50;;;;;;5114088;28;20130;-70
2022/04/10 07:37:47;;;;;;;0.95;0.40;;;5.00;81.70;;;;;;5095468;28;20468;-70
2022/04/10 07:40:14;;;;;;;0.90;0.40;;;5.00;81.80;;;;;;5113419;28;20047;-70
2022/04/10 07:42:43;;;;;;;0.47;0.30;;;5.00;81.90;;;;;;5095935;28;20036;-70
2022/04/10 07:45:10;;;;;;;0.20;0.20;;;5.10;82.00;;;;;;5113452;28;20047;-70
2022/04/10 07:47:36;;;;;;;0.40;0.38;;;5.10;82.00;;;;;;5113651;28;20439;-71
2022/04/10 07:50:03;;;;;;;0.20;0.20;;;5.20;82.00;;;;;;5095242;28;20035;-70
2022/04/10 07:52:29;;;;;;;0.35;0.30;;;5.30;82.00;;;;;;5113882;28;20377;-70
2022/04/10 07:54:55;;;;;;;0.80;0.32;;;5.50;82.00;;;;;;5113497;28;20032;-70
2022/04/10 07:57:21;;;;;;;0.40;0.30;;;5.60;81.80;;;;;;5095156;28;20438;-70
2022/04/10 07:59:47;;;;;;;0.20;0.20;;;5.80;81.60;;;;;;5113347;28;20074;-70
2022/04/10 08:02:12;;;;;;;0.22;0.20;;;6.00;81.50;;;;;;5113465;28;20032;-70
2022/04/10 08:04:38;;;;;;;0.10;0.10;;;6.10;81.20;;;;;;5095540;28;20078;-71
2022/04/10 08:07:04;;;;;;;0.63;0.30;;;6.40;81.10;;;;;;5113220;28;20047;-71
2022/04/10 08:09:32;;;;;;;0.40;0.15;;;6.50;80.70;;;;;;5113825;28;20043;-71
2022/04/10 08:11:58;;;;;;;0.88;0.40;;;6.70;80.50;;;;;;5113338;28;20128;-71
2022/04/10 08:14:24;;;;;;;0.20;0.20;;;6.80;80.30;;;;;;5094877;28;20043;-71
2022/04/10 08:16:49;;;;;;;0.38;0.20;;;7.00;80.10;;;;;;5113707;28;20042;-72
2022/04/10 08:19:15;;;;;;;0.32;0.32;;;7.20;80.10;;;;;;5112849;28;20089;-71
2022/04/10 08:21:41;;;;;;;1.10;0.50;;;7.30;79.90;;;;;;5113541;28;20469;-71
2022/04/10 08:24:09;;;;;;;0.30;0.30;;;7.40;79.70;;;;;;5094322;28;20050;-72
2022/04/10 08:26:35;;;;;;;1.17;0.43;;;7.50;79.60;;;;;;5113417;28;20044;-72
2022/04/10 08:29:01;;;;;;;0.30;0.30;;;7.60;79.50;;;;;;5113414;28;20135;-72
2022/04/10 08:31:28;;;;;;;2.42;0.40;;;7.70;79.50;;;;;;5095268;28;20434;-73
2022/04/10 08:33:54;;;;;;;0.60;0.28;;;7.80;79.60;;;;;;5113056;28;20497;-72
2022/04/10 08:36:21;;;;;;;0.40;0.40;;;7.80;79.60;;;;;;5094765;28;20523;-73
2022/04/10 08:38:47;;;;;;;1.08;0.40;;;7.80;79.70;;;;;;5112870;28;20039;-72
2022/04/10 08:41:13;;;;;;;0.55;0.32;;;7.90;79.80;;;;;;5112534;28;20035;-72
2022/04/10 08:43:39;;;;;;;0.30;0.30;;;7.90;79.80;;;;;;5112771;28;20067;-73
2022/04/10 08:46:06;;;;;;;0.20;0.20;;;8.00;79.80;;;;;;5112778;28;20046;-69
2022/04/10 08:48:32;;;;;;;0.65;0.30;;;8.10;79.80;;;;;;5112880;28;20035;-72
2022/04/10 08:50:59;;;;;;;0.30;0.30;;;8.30;79.60;;;;;;5113088;28;20512;-73
2022/04/10 08:53:25;;;;;;;0.57;0.32;;;8.40;79.50;;;;;;5112459;28;20071;-70
2022/04/10 08:55:51;;;;;;;0.68;0.20;;;8.40;79.20;;;;;;5112589;28;20066;-71
2022/04/10 08:58:20;;;;;;;0.40;0.40;;;8.50;79.20;;;;;;5112755;28;20529;-70
2022/04/10 09:00:46;;;;;;;0.43;0.30;;;8.60;79.30;;;;;;5094678;28;20047;-70
2022/04/10 09:03:11;;;;;;;1.50;0.50;;;8.70;79.20;;;;;;5112834;28;20389;-70
2022/04/10 09:05:37;;;;;;;2.35;0.45;;;8.90;79.20;;;;;;5112613;28;20442;-68
2022/04/10 09:08:14;;;;;;;0.35;0.30;;;8.90;79.00;;;;;;5112589;28;20492;-69
2022/04/10 09:10:54;;;;;;;0.77;0.40;;;9.10;79.00;;;;;;5061729;28;20060;-68
2022/04/10 09:13:27;;;;;;;0.82;0.38;;;9.10;78.60;;;;;;5094230;28;20036;-71
2022/04/10 09:16:02;;;;;;;0.40;0.40;;;9.10;78.60;;;;;;5112520;28;20043;-72
2022/04/10 09:18:28;;;;;;;0.15;0.15;;;9.30;78.60;;;;;;5112272;28;20047;-68
2022/04/10 09:21:08;;;;;;;1.25;0.40;;;9.40;78.50;;;;;;5094015;28;20043;-71
2022/04/10 09:23:34;;;;;;;0.60;0.30;;;9.50;78.10;;;;;;5112510;28;20074;-69
2022/04/10 09:26:01;;;;;;;0.30;0.30;;;9.60;77.90;;;;;;5112410;28;20040;-71
2022/04/10 09:28:42;;;;;;;0.40;0.40;;;9.70;77.80;;;;;;5112226;28;20122;-69
2022/04/10 09:31:23;;;;;;;0.40;0.30;;;9.80;77.60;;;;;;5113491;28;20027;-71
2022/04/10 09:33:50;;;;;;;1.23;0.40;;;9.90;77.30;;;;;;5115979;28;20036;-71
2022/04/10 09:36:31;;;;;;;1.75;0.30;;;9.90;77.20;;;;;;5115662;28;20044;-69
2022/04/10 09:38:56;;;;;;;0.20;0.20;;;10.00;76.90;;;;;;5097180;28;20047;-71
2022/04/10 09:41:22;;;;;;;0.95;0.40;;;10.10;76.80;;;;;;5097422;28;20051;-69
2022/04/10 09:43:48;;;;;;;0.13;0.13;;;10.10;76.90;;;;;;5115517;28;20083;-70
2022/04/10 09:46:13;;;;;;;0.40;0.30;;;10.10;76.80;;;;;;5115157;28;20082;-74
2022/04/10 09:48:39;;;;;;;0.60;0.30;;;10.10;76.70;;;;;;5115597;28;20031;-73
2022/04/10 09:51:05;;;;;;;0.20;0.20;;;10.00;76.70;;;;;;5115768;28;20046;-72
2022/04/10 09:53:33;;;;;;;0.43;0.30;;;10.10;76.50;;;;;;5097280;28;20089;-73
2022/04/10 09:56:02;;;;;;;0.65;0.40;;;10.00;76.40;;;;;;5116076;28;20039;-71
2022/04/10 09:58:28;;;;;;;1.40;0.40;;;9.80;76.40;;;;;;5115353;28;20393;-70
2022/04/10 10:00:56;;;;;;;0.82;0.22;;;9.70;76.90;;;;;;5095310;28;20397;-70
2022/04/10 10:03:23;;;;;;;2.40;0.50;;;9.80;77.10;;;;;;5111289;28;20044;-69
2022/04/10 10:05:51;;;;;;;0.45;0.38;;;10.00;76.80;;;;;;5116236;28;20043;-74
2022/04/10 10:08:17;;;;;;;0.47;0.40;;;10.00;76.10;;;;;;5097159;28;20404;-71
2022/04/10 10:10:44;;;;;;;0.80;0.30;;;10.10;75.60;;;;;;5115180;28;20077;-73
2022/04/10 10:13:12;;;;;;;1.20;0.43;;;10.10;75.50;;;;;;5117107;28;20115;-74
2022/04/10 10:15:38;;;;;;;2.58;0.47;;;10.20;75.30;;;;;;5100331;28;20078;-73
2022/04/10 10:18:26;;;;;;;2.03;0.57;;;10.30;75.00;;;;;;5117364;28;20054;-75
2022/04/10 10:20:52;;;;;;;1.92;0.52;;;10.40;74.70;;;;;;5099676;28;20039;-73
2022/04/10 10:23:20;;;;;;;0.40;0.40;;;10.30;74.40;;;;;;5097436;28;20036;-72
2022/04/10 10:26:02;;;;;;;1.05;0.50;;;10.20;74.30;;;;;;5114948;28;20412;-71
2022/04/10 10:28:59;;;;;;;1.65;0.30;;;10.30;74.30;;;;;;5095489;28;20067;-69
2022/04/10 10:31:45;;;;;;;1.52;0.50;;;10.40;74.00;;;;;;5097326;28;20071;-71
2022/04/10 10:34:11;;;;;;;1.20;0.50;;;10.30;73.20;;;;;;5115446;28;20047;-69
2022/04/10 10:36:37;;;;;;;0.38;0.25;;;10.20;73.40;;;;;;5114819;28;20050;-70
2022/04/10 10:39:05;;;;;;;0.22;0.22;;;10.00;73.70;;;;;;5115143;28;20092;-70
2022/04/10 10:41:33;;;;;;;0.35;0.20;;;10.00;74.00;;;;;;5114491;28;20126;-70
2022/04/10 10:44:16;;;;;;;0.55;0.20;;;10.10;74.20;;;;;;5114799;28;20101;-69
2022/04/10 10:46:58;;;;;;;0.65;0.30;;;10.30;73.70;;;;;;5097304;28;20082;-70
2022/04/10 10:49:27;;;;;;;0.65;0.28;;;10.50;73.00;;;;;;5096533;28;20063;-71
2022/04/10 10:51:55;;;;;;;0.30;0.30;;;10.60;73.00;;;;;;5115152;28;20125;-69
2022/04/10 10:54:44;;;;;;;0.45;0.45;;;10.70;72.70;;;;;;5114909;28;20473;-69
2022/04/10 10:57:22;;;;;;;0.73;0.30;;;10.70;72.10;;;;;;5096489;28;20057;-70
2022/04/10 10:59:51;;;;;;;0.73;0.40;;;10.80;72.10;;;;;;5095464;28;20470;-69
2022/04/10 11:02:19;;;;;;;0.82;0.30;;;10.70;71.80;;;;;;5114492;28;20042;-70
2022/04/10 11:04:47;;;;;;;0.43;0.32;;;10.70;72.10;;;;;;5114385;28;20035;-71
2022/04/10 11:07:24;;;;;;;0.38;0.25;;;10.70;72.00;;;;;;5114245;28;20047;-70
2022/04/10 11:09:58;;;;;;;0.32;0.30;;;10.80;71.90;;;;;;5114428;28;20524;-69
2022/04/10 11:12:30;;;;;;;0.43;0.20;;;10.80;71.50;;;;;;5114755;28;20123;-68
2022/04/10 11:14:59;;;;;;;0.20;0.20;;;10.90;71.30;;;;;;5113907;28;20481;-68
2022/04/10 11:17:28;;;;;;;0.55;0.20;;;11.00;71.00;;;;;;5114118;28;20485;-69
2022/04/10 11:19:57;;;;;;;0.20;0.20;;;11.20;70.70;;;;;;5114328;28;20027;-69
2022/04/10 11:22:32;;;;;;;0.80;0.20;;;11.40;70.30;;;;;;5113879;28;20039;-69
2022/04/10 11:24:59;;;;;;;0.20;0.20;;;11.60;69.90;;;;;;5113820;28;20122;-69
2022/04/10 11:27:43;;;;;;;0.38;0.28;;;11.50;69.40;;;;;;5113878;28;20031;-69
2022/04/10 11:30:12;;;;;;;0.30;0.28;;;11.40;69.50;;;;;;5114142;28;20374;-69
2022/04/10 11:32:43;;;;;;;0.20;0.20;;;11.40;69.60;;;;;;5094314;28;20405;-70
2022/04/10 11:35:20;;;;;;;0.68;0.30;;;11.40;69.80;;;;;;5113968;28;20099;-69
2022/04/10 11:37:50;;;;;;;0.35;0.20;;;11.60;69.60;;;;;;5076857;28;20040;-69
2022/04/10 11:40:21;;;;;;;0.20;0.20;;;11.60;69.20;;;;;;5113953;28;20047;-69
2022/04/10 11:42:47;;;;;;;0.32;0.25;;;11.70;68.70;;;;;;5113724;28;20427;-69
2022/04/10 11:45:13;;;;;;;0.30;0.20;;;11.60;68.70;;;;;;5113469;28;20062;-69
2022/04/10 11:47:42;;;;;;;0.32;0.30;;;11.50;69.30;;;;;;5113898;28;20047;-69
2022/04/10 11:50:11;;;;;;;0.57;0.30;;;11.60;69.40;;;;;;5095736;28;20487;-69
2022/04/10 11:52:37;;;;;;;1.65;0.30;;;11.70;68.90;;;;;;5114046;28;20065;-69
2022/04/10 11:55:06;;;;;;;0.20;0.20;;;11.70;68.50;;;;;;5113163;28;20370;-69
2022/04/10 11:57:32;;;;;;;0.98;0.40;;;11.60;68.30;;;;;;5078454;28;20125;-69
2022/04/10 11:59:57;;;;;;;0.30;0.30;;;11.60;68.50;;;;;;5113734;28;20039;-69
2022/04/10 12:02:24;;;;;;;1.65;0.30;;;11.50;68.50;;;;;;5113765;28;20031;-69
2022/04/10 12:04:50;;;;;;;0.50;0.20;;;11.40;68.80;;;;;;5094913;28;20058;-69
2022/04/10 12:07:18;;;;;;;0.77;0.20;;;11.30;68.90;;;;;;5113763;28;20043;-70
2022/04/10 12:09:46;;;;;;;0.10;0.10;;;11.20;69.20;;;;;;5113294;28;20115;-70
2022/04/10 12:12:13;;;;;;;0.85;0.30;;;11.20;69.50;;;;;;5113059;28;20126;-70
2022/04/10 12:14:39;;;;;;;0.10;0.10;;;11.00;69.60;;;;;;5113618;28;20052;-70
2022/04/10 12:17:18;;;;;;;1.38;0.20;;;11.20;70.00;;;;;;5113442;28;20043;-70
2022/04/10 12:19:43;;;;;;;0.95;0.30;;;11.40;69.40;;;;;;5113704;28;20039;-70
2022/04/10 12:22:10;;;;;;;0.38;0.20;;;11.60;68.60;;;;;;5113526;28;20039;-70
2022/04/10 12:24:37;;;;;;;0.30;0.30;;;11.70;68.30;;;;;;5112937;28;20044;-69
2022/04/10 12:27:06;;;;;;;0.32;0.30;;;11.90;68.00;;;;;;5112798;28;20039;-70
2022/04/10 12:29:34;;;;;;;0.47;0.30;;;12.10;67.70;;;;;;5113114;28;20463;-70
2022/04/10 12:32:00;;;;;;;1.50;0.60;;;12.20;67.40;;;;;;5113399;28;20221;-70
2022/04/10 12:34:35;;;;;;;0.98;0.40;;;12.30;66.80;;;;;;5112882;28;20100;-70
2022/04/10 12:37:10;;;;;;;0.40;0.30;;;12.30;66.70;;;;;;5112876;28;20096;-70
2022/04/10 12:39:36;;;;;;;0.40;0.30;;;12.50;66.70;;;;;;5112800;28;20092;-70
2022/04/10 12:42:10;;;;;;;0.20;0.20;;;12.60;66.40;;;;;;5113362;28;20108;-70
2022/04/10 12:44:40;;;;;;;0.73;0.30;;;12.60;66.20;;;;;;5113062;28;20047;-70
2022/04/10 12:47:07;;;;;;;0.10;0.10;;;12.50;66.30;;;;;;5094399;28;20382;-70
2022/04/10 12:49:34;;;;;;;0.20;0.20;;;12.50;66.60;;;;;;5113269;28;20100;-70
2022/04/10 12:52:04;;;;;;;0.40;0.20;;;12.50;67.10;;;;;;5112547;28;20039;-70
2022/04/10 12:54:42;;;;;;;0.30;0.30;;;12.70;66.90;;;;;;5095011;28;20444;-70
2022/04/10 12:57:12;;;;;;;0.40;0.35;;;12.70;66.40;;;;;;5112853;28;20111;-70
2022/04/10 12:59:40;;;;;;;0.63;0.32;;;12.80;66.40;;;;;;5094132;28;20408;-69